Time;durP1;ratioP1;P1;durP2;ratioP2;P2;SDS_P1;SDS_P2;PMS_P1;PMS_P2;Temp;Humidity;BMP_temperature;BMP_pressure;BME280_temperature;BME280_humidity;BME280_pressure;Samples;Min_cycle;Max_cycle;Signal;HPM_P1;HPM_P2
2022/08/14 00:01:04;;;;;;;5.47;3.53;;;19.80;1.00;;;;;;7363967;19;20010;-68
2022/08/14 00:03:42;;;;;;;3.88;3.38;;;19.90;1.00;;;;;;7361129;19;20097;-67
2022/08/14 00:06:12;;;;;;;4.13;3.63;;;19.90;1.00;;;;;;7359267;19;20569;-67
2022/08/14 00:08:58;;;;;;;5.35;3.63;;;20.00;1.00;;;;;;7361908;19;20667;-68
2022/08/14 00:11:28;;;;;;;5.30;3.40;;;20.00;1.00;;;;;;7362060;19;20014;-68
2022/08/14 00:14:03;;;;;;;5.07;3.50;;;20.00;1.00;;;;;;7382485;19;20018;-67
2022/08/14 00:16:33;;;;;;;3.85;3.45;;;19.90;1.00;;;;;;7359210;19;20018;-68
2022/08/14 00:19:16;;;;;;;6.30;3.13;;;19.80;1.00;;;;;;7361212;19;20175;-67
2022/08/14 00:21:50;;;;;;;4.43;3.35;;;19.60;1.00;;;;;;7360966;19;20015;-68
2022/08/14 00:24:20;;;;;;;4.47;3.28;;;19.50;1.00;;;;;;7360131;19;20078;-67
2022/08/14 00:26:58;;;;;;;5.82;3.35;;;19.40;1.00;;;;;;7359906;19;20367;-68
2022/08/14 00:29:34;;;;;;;5.75;3.85;;;19.30;1.00;;;;;;7361088;19;20018;-68
2022/08/14 00:32:11;;;;;;;4.28;3.45;;;19.20;1.00;;;;;;7381889;19;20026;-66
2022/08/14 00:35:03;;;;;;;7.90;3.35;;;19.30;1.00;;;;;;7364259;19;20014;-68
2022/08/14 00:37:34;;;;;;;3.80;3.50;;;19.30;1.00;;;;;;7361188;19;20018;-67
2022/08/14 00:40:06;;;;;;;4.90;3.22;;;19.40;1.00;;;;;;7359508;19;20018;-67
2022/08/14 00:42:55;;;;;;;5.65;3.58;;;19.30;1.00;;;;;;7361994;19;20021;-67
2022/08/14 00:45:26;;;;;;;4.75;3.58;;;19.10;1.00;;;;;;7366749;19;20361;-67
2022/08/14 00:48:00;;;;;;;5.57;4.00;;;19.00;1.00;;;;;;7369981;19;20044;-67
2022/08/14 00:50:33;;;;;;;5.68;3.65;;;18.90;1.00;;;;;;7369996;19;20074;-68
2022/08/14 00:53:05;;;;;;;7.90;3.78;;;18.90;1.00;;;;;;7389516;19;20021;-67
2022/08/14 00:55:40;;;;;;;5.05;3.53;;;18.90;1.00;;;;;;7369940;19;20777;-68
2022/08/14 01:01:04;;;;;;;4.82;3.22;;;19.10;1.00;;;;;;7365599;19;20010;-68
2022/08/14 01:03:36;;;;;;;3.78;3.40;;;19.20;1.00;;;;;;7367493;19;20013;-67
2022/08/14 01:06:11;;;;;;;3.72;3.42;;;19.30;1.00;;;;;;7366114;19;20018;-67
2022/08/14 01:08:42;;;;;;;3.63;3.10;;;19.30;1.00;;;;;;7366866;19;20017;-67
2022/08/14 01:11:29;;;;;;;4.82;3.80;;;19.30;1.00;;;;;;7368129;19;20358;-67
2022/08/14 01:14:05;;;;;;;5.68;3.35;;;19.30;1.00;;;;;;7389191;19;20023;-68
2022/08/14 01:16:56;;;;;;;3.40;3.10;;;19.20;1.00;;;;;;7364335;19;20014;-67
2022/08/14 01:22:14;;;;;;;3.85;3.13;;;19.20;1.00;;;;;;7365888;19;20379;-67
2022/08/14 01:24:48;;;;;;;5.03;3.05;;;19.20;1.00;;;;;;7366355;19;20015;-68
2022/08/14 01:27:22;;;;;;;3.40;3.10;;;19.20;1.00;;;;;;7365069;19;20018;-68
2022/08/14 01:29:56;;;;;;;5.43;3.50;;;19.10;1.00;;;;;;7366781;19;20013;-67
2022/08/14 01:32:33;;;;;;;4.10;3.22;;;19.00;1.00;;;;;;7366985;19;20014;-67
2022/08/14 01:35:11;;;;;;;4.38;3.00;;;19.00;1.00;;;;;;7392067;19;20032;-67
2022/08/14 01:38:04;;;;;;;3.60;3.30;;;18.70;1.00;;;;;;7369767;19;20025;-66
2022/08/14 01:40:34;;;;;;;5.95;3.38;;;18.30;1.00;;;;;;7364929;19;20014;-67
2022/08/14 01:43:14;;;;;;;6.90;4.07;;;18.20;1.00;;;;;;7366314;19;20006;-67
2022/08/14 01:45:50;;;;;;;4.15;3.78;;;18.20;1.00;;;;;;7365881;19;20066;-67
2022/08/14 01:48:35;;;;;;;5.93;3.95;;;18.00;1.00;;;;;;7365951;19;20014;-67
2022/08/14 01:51:07;;;;;;;6.45;3.88;;;17.90;1.00;;;;;;7368475;19;20025;-67
2022/08/14 01:53:54;;;;;;;5.20;3.53;;;17.90;1.00;;;;;;7367522;19;20085;-68
2022/08/14 01:56:32;;;;;;;4.47;3.50;;;17.90;1.00;;;;;;7364341;19;20037;-68
2022/08/14 01:59:08;;;;;;;5.40;3.90;;;17.70;1.00;;;;;;7386999;19;20029;-66
2022/08/14 02:01:47;;;;;;;4.15;3.75;;;17.70;1.00;;;;;;7363943;19;20018;-67
2022/08/14 02:04:35;;;;;;;3.78;3.45;;;17.70;1.00;;;;;;7365020;19;20494;-68
2022/08/14 02:07:24;;;;;;;12.00;3.60;;;17.80;1.00;;;;;;7362597;19;20546;-66
2022/08/14 02:10:17;;;;;;;5.38;3.45;;;17.70;1.00;;;;;;7365212;19;20022;-67
2022/08/14 02:12:54;;;;;;;5.40;3.30;;;17.70;1.00;;;;;;7365415;19;20118;-67
2022/08/14 02:15:28;;;;;;;3.80;3.50;;;17.90;1.00;;;;;;7365336;19;20051;-68
2022/08/14 02:18:00;;;;;;;5.25;3.47;;;18.00;1.00;;;;;;7364719;19;20529;-67
2022/08/14 02:20:32;;;;;;;4.15;3.75;;;18.00;1.00;;;;;;7364615;19;20015;-67
2022/08/14 02:23:05;;;;;;;3.77;3.37;;;18.10;1.00;;;;;;7385709;19;20493;-66
2022/08/14 02:25:39;;;;;;;4.63;3.80;;;18.00;1.00;;;;;;7364274;19;20348;-67
2022/08/14 02:28:09;;;;;;;4.18;3.28;;;18.00;1.00;;;;;;7364211;19;20030;-67
2022/08/14 02:31:01;;;;;;;4.78;3.40;;;18.10;1.00;;;;;;7364717;19;20018;-67
2022/08/14 02:33:32;;;;;;;3.70;3.30;;;18.00;1.00;;;;;;7366169;19;20016;-67
2022/08/14 02:36:02;;;;;;;3.50;3.20;;;18.10;1.00;;;;;;7366741;19;20031;-67
2022/08/14 02:38:52;;;;;;;3.83;3.22;;;18.20;1.00;;;;;;7366749;19;20026;-68
2022/08/14 02:41:24;;;;;;;3.58;3.28;;;18.20;1.00;;;;;;7366985;19;20025;-68
2022/08/14 02:43:57;;;;;;;4.32;3.55;;;18.30;1.00;;;;;;7385343;19;20537;-66
2022/08/14 02:46:30;;;;;;;4.68;3.15;;;18.20;1.00;;;;;;7362722;19;20029;-67
2022/08/14 02:49:03;;;;;;;7.05;3.95;;;18.20;1.00;;;;;;7365885;19;20010;-68
2022/08/14 02:51:36;;;;;;;4.45;3.50;;;18.10;1.00;;;;;;7364071;19;20015;-67
2022/08/14 02:54:07;;;;;;;6.13;3.30;;;18.20;1.00;;;;;;7363990;19;20018;-67
2022/08/14 02:56:39;;;;;;;4.68;3.53;;;18.20;1.00;;;;;;7362946;19;20091;-69
2022/08/14 02:59:31;;;;;;;3.65;3.35;;;18.20;1.00;;;;;;7363437;19;20042;-67
2022/08/14 03:02:03;;;;;;;6.10;3.50;;;18.10;1.00;;;;;;7383784;19;20482;-67
2022/08/14 03:04:34;;;;;;;4.40;3.85;;;18.10;1.00;;;;;;7363250;19;20014;-67
2022/08/14 03:07:04;;;;;;;5.95;4.03;;;18.10;1.00;;;;;;7359993;19;20070;-67
2022/08/14 03:09:38;;;;;;;5.00;3.83;;;18.00;1.00;;;;;;7363369;19;20014;-67
2022/08/14 03:12:31;;;;;;;4.22;3.83;;;17.80;1.00;;;;;;7364030;19;20042;-67
2022/08/14 03:15:09;;;;;;;3.88;3.53;;;17.80;1.00;;;;;;7363022;19;20040;-67
2022/08/14 03:17:43;;;;;;;4.25;3.78;;;17.90;1.00;;;;;;7361567;19;20014;-67
2022/08/14 03:20:28;;;;;;;4.18;3.58;;;17.90;1.00;;;;;;7362804;19;20100;-67
2022/08/14 03:23:00;;;;;;;5.05;3.90;;;17.90;1.00;;;;;;7382597;19;20018;-68
2022/08/14 03:25:33;;;;;;;5.65;4.03;;;17.90;1.00;;;;;;7362043;19;20017;-68
2022/08/14 03:28:11;;;;;;;6.72;4.43;;;17.90;1.00;;;;;;7362364;19;20251;-67
2022/08/14 03:30:59;;;;;;;5.15;4.03;;;17.90;1.00;;;;;;7362520;19;20015;-68
2022/08/14 03:33:30;;;;;;;5.80;3.45;;;18.00;1.00;;;;;;7364369;19;20018;-68
2022/08/14 03:36:11;;;;;;;4.75;3.60;;;18.10;1.00;;;;;;7362552;19;20011;-66
2022/08/14 03:39:02;;;;;;;6.28;3.63;;;17.90;1.00;;;;;;7364702;19;20021;-67
2022/08/14 03:41:54;;;;;;;5.93;3.60;;;17.90;1.00;;;;;;7363523;19;20014;-67
2022/08/14 03:44:26;;;;;;;7.03;3.65;;;17.80;1.00;;;;;;7364866;19;20070;-67
2022/08/14 03:47:16;;;;;;;4.50;4.10;;;17.70;1.00;;;;;;7386669;19;20026;-68
2022/08/14 03:49:47;;;;;;;5.05;3.63;;;17.20;1.00;;;;;;7362796;19;20034;-68
2022/08/14 03:52:19;;;;;;;6.15;3.88;;;17.10;1.00;;;;;;7362279;19;20010;-67
2022/08/14 03:55:11;;;;;;;8.00;4.28;;;17.00;1.00;;;;;;7361942;19;20014;-68
2022/08/14 03:57:42;;;;;;;4.60;3.55;;;16.90;1.00;;;;;;7361241;19;20038;-68
2022/08/14 04:00:17;;;;;;;4.40;3.97;;;16.70;1.00;;;;;;7361941;19;20085;-68
2022/08/14 04:03:08;;;;;;;6.00;3.78;;;16.70;1.00;;;;;;7361246;19;20019;-68
2022/08/14 04:05:41;;;;;;;7.13;4.45;;;16.60;1.00;;;;;;7361925;19;20447;-68
2022/08/14 04:08:16;;;;;;;4.35;3.90;;;16.40;1.00;;;;;;7382999;19;20022;-68
2022/08/14 04:11:00;;;;;;;6.78;4.35;;;16.40;1.00;;;;;;7361456;19;20014;-68
2022/08/14 04:13:32;;;;;;;5.32;3.80;;;16.50;1.00;;;;;;7361012;19;20070;-68
2022/08/14 04:16:09;;;;;;;4.97;3.90;;;16.50;1.00;;;;;;7360580;19;20014;-69
2022/08/14 04:18:42;;;;;;;4.75;3.95;;;16.50;1.00;;;;;;7361704;19;20027;-67
2022/08/14 04:21:13;;;;;;;4.20;3.80;;;16.70;1.00;;;;;;7360596;19;20018;-67
2022/08/14 04:23:46;;;;;;;7.40;3.90;;;17.00;1.00;;;;;;7359979;19;20094;-67
2022/08/14 04:26:28;;;;;;;5.63;3.65;;;17.00;1.00;;;;;;7360008;19;20014;-67
2022/08/14 04:29:12;;;;;;;5.28;4.13;;;17.20;1.00;;;;;;7382747;19;20022;-67
2022/08/14 04:31:49;;;;;;;5.38;3.90;;;17.60;1.00;;;;;;7361923;19;20022;-67
2022/08/14 04:34:41;;;;;;;4.78;4.10;;;18.00;1.00;;;;;;7363726;19;20017;-67
2022/08/14 04:45:39;;;;;;;6.28;3.70;;;20.10;1.00;;;;;;7360718;19;20021;-68
2022/08/14 04:48:11;;;;;;;5.47;3.60;;;20.20;1.00;;;;;;7362730;19;20018;-67
2022/08/14 04:50:43;;;;;;;4.00;3.60;;;20.10;1.00;;;;;;7362737;19;20479;-68
2022/08/14 04:53:24;;;;;;;5.93;3.85;;;19.90;1.00;;;;;;7360970;19;20011;-68
2022/08/14 04:56:05;;;;;;;5.85;3.72;;;19.60;1.00;;;;;;7380482;19;20018;-68
2022/08/14 04:58:57;;;;;;;3.85;3.50;;;19.30;1.00;;;;;;7360111;19;20017;-68
2022/08/14 05:01:30;;;;;;;4.13;3.58;;;19.20;1.00;;;;;;7359699;19;20015;-68
2022/08/14 05:04:11;;;;;;;3.72;3.42;;;19.70;1.00;;;;;;7359245;19;20018;-66
2022/08/14 05:06:45;;;;;;;6.20;3.42;;;19.70;1.00;;;;;;7358453;19;20489;-68
2022/08/14 05:09:18;;;;;;;6.15;3.50;;;20.50;1.00;;;;;;7359923;19;20419;-68
2022/08/14 05:11:50;;;;;;;3.65;3.35;;;20.90;1.00;;;;;;7360419;19;20023;-68
2022/08/14 05:14:21;;;;;;;6.30;3.67;;;20.70;1.00;;;;;;7359724;19;20026;-68
2022/08/14 05:17:11;;;;;;;4.45;3.60;;;20.40;1.00;;;;;;7379212;19;20469;-68
2022/08/14 05:19:43;;;;;;;4.10;3.70;;;20.50;1.00;;;;;;7359229;19;20078;-68
2022/08/14 05:22:33;;;;;;;4.55;3.80;;;20.60;1.00;;;;;;7358359;19;20046;-68
2022/08/14 05:25:07;;;;;;;6.90;3.60;;;20.50;1.00;;;;;;7358854;19;20020;-68
2022/08/14 05:27:38;;;;;;;4.85;4.32;;;20.30;1.00;;;;;;7358704;19;20010;-68
2022/08/14 05:30:10;;;;;;;3.85;3.20;;;20.60;1.00;;;;;;7367620;19;20017;-68
2022/08/14 05:32:45;;;;;;;6.60;3.47;;;21.10;1.00;;;;;;7366998;19;20018;-67
2022/08/14 05:35:18;;;;;;;5.68;3.25;;;20.90;1.00;;;;;;7391685;19;20010;-67
2022/08/14 05:37:50;;;;;;;5.35;3.50;;;20.50;1.00;;;;;;7366812;19;20006;-68
2022/08/14 05:40:20;;;;;;;5.85;3.47;;;20.50;1.00;;;;;;7365818;19;20109;-68
2022/08/14 05:42:53;;;;;;;11.73;3.90;;;20.60;1.00;;;;;;7366510;19;20048;-67
2022/08/14 05:45:25;;;;;;;4.38;3.97;;;21.50;1.00;;;;;;7366497;19;20110;-67
2022/08/14 05:47:55;;;;;;;4.28;3.30;;;22.00;1.00;;;;;;7368049;19;20111;-67
2022/08/14 05:50:28;;;;;;;4.05;3.50;;;23.10;1.00;;;;;;7367819;19;20022;-67
2022/08/14 05:52:58;;;;;;;4.20;3.72;;;21.10;1.00;;;;;;7386961;19;20025;-67
2022/08/14 05:55:28;;;;;;;5.72;4.40;;;20.50;1.00;;;;;;7364631;19;20508;-68
2022/08/14 05:58:02;;;;;;;4.50;4.10;;;20.40;1.00;;;;;;7365455;19;20025;-67
2022/08/14 06:00:35;;;;;;;5.78;3.40;;;20.50;1.00;;;;;;7365782;19;20658;-68
2022/08/14 06:03:11;;;;;;;8.13;3.92;;;20.40;1.00;;;;;;7364738;19;20129;-68
2022/08/14 06:05:44;;;;;;;4.88;3.65;;;20.50;1.00;;;;;;7365004;19;20091;-69
2022/08/14 06:08:19;;;;;;;3.80;3.38;;;20.60;1.00;;;;;;7386421;19;20021;-67
2022/08/14 06:11:07;;;;;;;4.72;3.72;;;20.60;1.00;;;;;;7364981;19;20014;-67
2022/08/14 06:13:40;;;;;;;4.03;3.50;;;20.50;1.00;;;;;;7365134;19;20630;-67
2022/08/14 06:16:17;;;;;;;5.05;3.67;;;20.50;1.00;;;;;;7363321;19;20014;-67
2022/08/14 06:18:48;;;;;;;4.28;3.67;;;20.10;1.00;;;;;;7364779;19;20470;-67
2022/08/14 06:21:24;;;;;;;;;;;20.30;1.00;;;;;;7365726;19;20549;-67
2022/08/14 06:23:54;;;;;;;5.97;3.78;;;20.40;1.00;;;;;;7364578;19;19931;-66
2022/08/14 06:26:28;;;;;;;3.87;3.43;;;20.40;1.00;;;;;;7365176;19;20015;-67
2022/08/14 06:28:59;;;;;;;4.22;3.63;;;20.60;1.00;;;;;;7386439;19;20038;-67
2022/08/14 06:31:29;;;;;;;4.80;3.25;;;20.60;1.00;;;;;;7364627;19;20029;-67
2022/08/14 06:33:59;;;;;;;3.60;3.30;;;20.70;1.00;;;;;;7367247;19;20017;-68
2022/08/14 06:36:52;;;;;;;4.13;3.72;;;20.90;1.00;;;;;;7365566;19;20013;-67
2022/08/14 06:39:22;;;;;;;8.50;3.60;;;21.00;1.00;;;;;;7366470;19;20014;-67
2022/08/14 06:42:06;;;;;;;6.97;3.63;;;21.00;1.00;;;;;;7363895;19;20102;-67
2022/08/14 06:44:56;;;;;;;4.75;3.40;;;21.30;1.00;;;;;;7363259;19;20015;-67
2022/08/14 06:47:27;;;;;;;4.65;3.40;;;21.10;1.00;;;;;;7364184;19;20471;-67
2022/08/14 06:49:57;;;;;;;5.65;3.90;;;21.30;1.00;;;;;;7386751;19;20018;-67
2022/08/14 06:52:29;;;;;;;3.90;3.50;;;21.40;1.00;;;;;;7363403;19;20490;-67
2022/08/14 06:55:00;;;;;;;5.05;3.90;;;21.00;1.00;;;;;;7364438;19;20462;-67
2022/08/14 06:57:39;;;;;;;6.97;4.85;;;21.20;1.00;;;;;;7362686;19;20542;-66
2022/08/14 07:00:11;;;;;;;3.92;3.60;;;21.40;1.00;;;;;;7363669;19;20017;-68
2022/08/14 07:05:47;;;;;;;4.80;3.80;;;21.90;1.00;;;;;;7363010;19;20014;-68
2022/08/14 07:08:29;;;;;;;3.78;3.10;;;21.50;1.00;;;;;;7363079;19;20048;-67
2022/08/14 07:11:02;;;;;;;6.40;3.50;;;21.70;1.00;;;;;;7384687;19;20021;-68
2022/08/14 07:13:33;;;;;;;3.83;3.10;;;22.00;1.00;;;;;;7362963;19;20125;-67
2022/08/14 07:16:04;;;;;;;3.80;2.97;;;22.30;1.00;;;;;;7362456;19;20018;-67
2022/08/14 07:18:37;;;;;;;5.07;3.17;;;22.30;1.00;;;;;;7363358;19;20043;-68
2022/08/14 07:21:10;;;;;;;3.47;3.17;;;22.70;1.00;;;;;;7363622;19;20019;-68
2022/08/14 07:23:43;;;;;;;6.30;3.25;;;22.90;1.00;;;;;;7365424;19;20078;-67
2022/08/14 07:26:15;;;;;;;2.97;2.77;;;23.00;1.00;;;;;;7383555;19;20096;-67
2022/08/14 07:28:46;;;;;;;6.32;3.22;;;22.90;1.00;;;;;;7364631;19;20252;-68
2022/08/14 07:31:16;;;;;;;3.83;3.10;;;23.00;1.00;;;;;;7365630;19;20014;-67
2022/08/14 07:33:50;;;;;;;4.85;3.08;;;23.10;1.00;;;;;;7364682;19;20010;-68
2022/08/14 07:36:22;;;;;;;5.43;2.65;;;23.40;1.00;;;;;;7364267;19;20474;-68
2022/08/14 07:39:03;;;;;;;6.75;3.10;;;23.80;1.00;;;;;;7365142;19;20051;-67
2022/08/14 07:41:43;;;;;;;6.05;3.15;;;24.00;1.00;;;;;;7363333;19;20086;-67
2022/08/14 07:44:13;;;;;;;5.55;2.90;;;23.80;1.00;;;;;;7383402;19;20021;-67
2022/08/14 07:47:02;;;;;;;3.95;2.90;;;23.90;1.00;;;;;;7362049;19;20466;-67
2022/08/14 07:49:33;;;;;;;3.20;2.58;;;23.90;1.00;;;;;;7362300;19;20477;-67
2022/08/14 07:52:03;;;;;;;3.20;2.60;;;24.40;1.00;;;;;;7360651;19;20014;-67
2022/08/14 07:54:37;;;;;;;3.35;2.55;;;24.60;1.00;;;;;;7361656;19;20093;-68
2022/08/14 07:57:07;;;;;;;3.45;2.50;;;24.50;1.00;;;;;;7360582;19;20102;-66
2022/08/14 07:59:50;;;;;;;2.63;2.30;;;24.70;1.00;;;;;;7361773;19;20018;-68
2022/08/14 08:02:21;;;;;;;4.32;2.20;;;24.90;1.00;;;;;;7361117;19;20014;-68
2022/08/14 08:04:52;;;;;;;3.83;2.63;;;24.70;1.00;;;;;;7381520;19;20825;-68
2022/08/14 08:07:30;;;;;;;2.70;2.50;;;24.90;1.00;;;;;;7358572;19;20047;-68
2022/08/14 08:10:29;;;;;;;2.90;2.50;;;25.30;1.00;;;;;;7361407;19;20030;-67
2022/08/14 08:13:20;;;;;;;3.17;2.42;;;25.30;1.00;;;;;;7361531;19;20014;-67
2022/08/14 08:15:55;;;;;;;4.55;2.90;;;25.40;1.00;;;;;;7361097;19;20033;-68
2022/08/14 08:18:27;;;;;;;4.10;2.57;;;25.50;1.00;;;;;;7362543;19;20367;-68
2022/08/14 08:20:58;;;;;;;2.70;2.50;;;25.20;1.00;;;;;;7361178;19;20113;-68
2022/08/14 08:23:31;;;;;;;5.93;2.40;;;25.00;1.00;;;;;;7359890;19;20397;-67
2022/08/14 08:26:22;;;;;;;3.50;2.45;;;25.10;1.00;;;;;;7363693;19;20018;-68
2022/08/14 08:28:58;;;;;;;2.58;2.35;;;25.40;1.00;;;;;;7382387;19;20111;-67
2022/08/14 08:31:28;;;;;;;4.18;2.47;;;25.80;1.00;;;;;;7360246;19;20094;-67
2022/08/14 08:34:07;;;;;;;5.93;2.42;;;26.00;1.00;;;;;;7362607;19;20011;-69
2022/08/14 08:36:47;;;;;;;3.67;2.33;;;25.90;1.00;;;;;;7361845;19;20036;-67
2022/08/14 08:39:17;;;;;;;3.58;2.22;;;26.00;1.00;;;;;;7363294;19;20018;-68
2022/08/14 08:41:54;;;;;;;;;;;25.80;1.00;;;;;;7360891;19;20044;-67
2022/08/14 08:44:31;;;;;;;3.38;2.22;;;25.90;1.00;;;;;;7359373;19;19925;-68
2022/08/14 08:47:04;;;;;;;2.85;2.20;;;26.00;1.00;;;;;;7381346;19;20014;-66
2022/08/14 08:49:42;;;;;;;3.55;2.30;;;26.30;1.00;;;;;;7360598;19;20542;-67
2022/08/14 08:52:28;;;;;;;4.47;1.85;;;26.40;1.00;;;;;;7359686;19;20510;-68
2022/08/14 08:55:11;;;;;;;2.75;2.42;;;26.80;1.00;;;;;;7360472;19;20018;-67
2022/08/14 08:57:44;;;;;;;3.10;2.05;;;26.80;1.00;;;;;;7358948;19;20021;-68
2022/08/14 09:00:17;;;;;;;2.92;2.30;;;27.00;1.00;;;;;;7360740;19;20117;-66
2022/08/14 09:02:56;;;;;;;3.22;2.38;;;26.90;1.00;;;;;;7359940;19;20074;-68
2022/08/14 09:05:27;;;;;;;3.58;2.33;;;26.60;1.00;;;;;;7364544;19;20006;-66
2022/08/14 09:08:11;;;;;;;2.85;2.53;;;26.70;1.00;;;;;;7388443;19;20101;-67
2022/08/14 09:11:03;;;;;;;4.70;2.40;;;26.80;1.00;;;;;;7367318;19;20015;-68
2022/08/14 09:13:52;;;;;;;3.28;2.10;;;26.80;1.00;;;;;;7367916;19;20481;-68
2022/08/14 09:16:24;;;;;;;3.60;2.70;;;26.80;1.00;;;;;;7368341;19;20015;-67
2022/08/14 09:19:00;;;;;;;3.97;2.50;;;26.70;1.00;;;;;;7367124;19;20019;-68
2022/08/14 09:21:31;;;;;;;3.25;2.28;;;26.80;1.00;;;;;;7367574;19;20007;-68
2022/08/14 09:24:01;;;;;;;3.30;2.25;;;27.40;1.00;;;;;;7369330;19;20011;-66
2022/08/14 09:26:51;;;;;;;3.85;2.42;;;27.60;1.00;;;;;;7363993;19;20446;-67
2022/08/14 09:29:24;;;;;;;3.92;2.60;;;27.20;1.00;;;;;;7365719;19;20365;-68
2022/08/14 09:32:04;;;;;;;3.88;2.47;;;27.20;1.00;;;;;;7388714;19;20030;-68
2022/08/14 09:35:06;;;;;;;3.80;2.40;;;27.20;1.00;;;;;;7369761;19;20010;-68
2022/08/14 09:37:50;;;;;;;2.38;2.03;;;27.50;1.00;;;;;;7365997;19;20013;-67
2022/08/14 09:40:37;;;;;;;2.53;2.22;;;27.50;1.00;;;;;;7366087;19;20010;-67
2022/08/14 09:43:17;;;;;;;3.15;2.30;;;27.70;1.00;;;;;;7365715;19;20019;-68
2022/08/14 09:45:57;;;;;;;6.35;4.15;;;28.10;1.00;;;;;;7364264;19;20143;-66
2022/08/14 09:48:31;;;;;;;4.65;3.08;;;28.10;1.00;;;;;;7365246;19;20014;-68
2022/08/14 09:51:04;;;;;;;2.75;2.33;;;28.20;1.00;;;;;;7367611;19;20015;-67
2022/08/14 09:53:42;;;;;;;2.78;2.50;;;28.60;1.00;;;;;;7366241;19;20508;-67
2022/08/14 09:56:35;;;;;;;3.30;3.00;;;28.40;1.00;;;;;;7363958;19;20478;-67
2022/08/14 09:59:15;;;;;;;3.83;2.72;;;28.10;1.00;;;;;;7386121;19;20048;-68
2022/08/14 10:01:47;;;;;;;4.00;2.78;;;28.50;1.00;;;;;;7364643;19;20036;-68
2022/08/14 10:04:24;;;;;;;4.63;3.20;;;28.60;1.00;;;;;;7364918;19;20014;-67
2022/08/14 10:07:04;;;;;;;2.88;2.67;;;28.40;1.00;;;;;;7362733;19;20042;-68
2022/08/14 10:09:48;;;;;;;5.32;3.20;;;28.40;1.00;;;;;;7366457;19;20010;-68
2022/08/14 10:12:48;;;;;;;3.45;2.90;;;28.50;1.00;;;;;;7365521;19;20015;-67
2022/08/14 10:15:25;;;;;;;4.25;2.88;;;28.20;1.00;;;;;;7364512;19;20015;-67
2022/08/14 10:18:09;;;;;;;7.05;3.08;;;28.50;1.00;;;;;;7366305;19;20085;-68
2022/08/14 10:20:56;;;;;;;5.03;2.95;;;28.30;1.00;;;;;;7367427;19;20018;-68
2022/08/14 10:23:30;;;;;;;3.10;2.80;;;28.70;1.00;;;;;;7365086;19;20354;-69
2022/08/14 10:26:08;;;;;;;3.50;3.20;;;28.70;1.00;;;;;;7384685;19;20055;-67
2022/08/14 10:28:43;;;;;;;3.95;2.80;;;29.20;1.00;;;;;;7364004;19;20021;-68
2022/08/14 10:31:33;;;;;;;3.00;2.80;;;28.80;1.00;;;;;;7364522;19;20378;-67
2022/08/14 10:34:22;;;;;;;5.00;2.75;;;29.00;1.00;;;;;;7367176;19;20044;-68
2022/08/14 10:37:09;;;;;;;3.30;3.00;;;28.50;1.00;;;;;;7364933;19;20517;-68
2022/08/14 10:39:45;;;;;;;3.33;2.80;;;28.50;1.00;;;;;;7364573;19;20558;-68
2022/08/14 10:42:38;;;;;;;3.67;2.60;;;28.30;1.00;;;;;;7365622;19;20018;-67
2022/08/14 10:45:20;;;;;;;3.50;2.63;;;28.50;1.00;;;;;;7362812;19;20050;-67
2022/08/14 10:47:51;;;;;;;3.83;2.53;;;29.00;1.00;;;;;;7363863;19;20077;-67
2022/08/14 10:50:50;;;;;;;2.90;2.70;;;29.00;1.00;;;;;;7365897;19;20025;-67
2022/08/14 10:53:31;;;;;;;4.95;2.72;;;29.10;1.00;;;;;;7363734;19;20038;-67
2022/08/14 10:56:05;;;;;;;3.05;2.47;;;29.30;1.00;;;;;;7384592;19;20018;-67
2022/08/14 10:58:50;;;;;;;4.95;2.60;;;29.00;1.00;;;;;;7363289;19;20295;-67
2022/08/14 11:01:32;;;;;;;4.68;2.88;;;29.40;1.00;;;;;;7362703;19;20632;-67
2022/08/14 11:04:27;;;;;;;3.65;3.35;;;29.20;1.00;;;;;;7363089;19;20037;-67
2022/08/14 11:07:02;;;;;;;3.35;2.80;;;29.60;1.00;;;;;;7363413;19;20017;-67
2022/08/14 11:09:35;;;;;;;3.65;3.35;;;29.40;1.00;;;;;;7363396;19;20014;-69
2022/08/14 11:12:10;;;;;;;3.03;2.50;;;29.40;1.00;;;;;;7363867;19;20018;-68
2022/08/14 11:15:01;;;;;;;3.20;3.00;;;29.60;1.00;;;;;;7365896;19;20010;-67
2022/08/14 11:17:34;;;;;;;4.70;2.63;;;29.30;1.00;;;;;;7360879;19;20098;-67
2022/08/14 11:20:08;;;;;;;3.67;2.88;;;29.70;1.00;;;;;;7384169;19;20018;-68
2022/08/14 11:22:48;;;;;;;3.70;3.10;;;29.70;1.00;;;;;;7362443;19;20078;-68
2022/08/14 11:25:36;;;;;;;4.05;3.15;;;30.00;1.00;;;;;;7361368;19;20015;-69
2022/08/14 11:28:25;;;;;;;3.85;3.10;;;30.10;1.00;;;;;;7360965;19;20015;-68
2022/08/14 11:31:15;;;;;;;3.10;2.90;;;30.10;1.00;;;;;;7362492;19;20012;-68
2022/08/14 11:33:50;;;;;;;2.85;2.65;;;29.90;1.00;;;;;;7364694;19;20506;-69
2022/08/14 11:36:25;;;;;;;3.72;2.85;;;30.20;1.00;;;;;;7364659;19;20039;-68
2022/08/14 11:39:23;;;;;;;3.40;3.10;;;30.30;1.00;;;;;;7364741;19;20006;-69
2022/08/14 11:42:07;;;;;;;3.45;2.90;;;30.00;1.00;;;;;;7363604;19;20015;-67
2022/08/14 11:45:01;;;;;;;3.17;2.63;;;30.40;1.00;;;;;;7361439;19;20011;-67
2022/08/14 11:47:34;;;;;;;4.65;3.17;;;30.40;1.00;;;;;;7361618;19;20038;-69
2022/08/14 11:50:26;;;;;;;3.95;2.78;;;30.00;1.00;;;;;;7363768;19;20022;-67
2022/08/14 11:53:07;;;;;;;5.25;2.95;;;30.20;1.00;;;;;;7383513;19;20021;-68
2022/08/14 11:55:45;;;;;;;3.22;2.92;;;30.20;1.00;;;;;;7361249;19;20085;-67
2022/08/14 11:58:19;;;;;;;3.67;2.88;;;30.20;1.00;;;;;;7360659;19;20010;-69
2022/08/14 12:00:57;;;;;;;4.10;2.60;;;30.40;1.00;;;;;;7361642;19;20014;-68
2022/08/14 12:03:37;;;;;;;3.35;2.58;;;30.50;1.00;;;;;;7365617;19;20033;-68
2022/08/14 12:06:22;;;;;;;3.38;3.08;;;30.10;1.00;;;;;;7359735;19;20559;-67
2022/08/14 12:09:04;;;;;;;2.97;2.73;;;30.10;1.00;;;;;;7361405;19;20043;-69
2022/08/14 12:11:44;;;;;;;4.20;2.75;;;29.70;1.00;;;;;;7364095;19;20025;-68
2022/08/14 12:14:17;;;;;;;4.95;3.08;;;29.90;1.00;;;;;;7383010;19;20350;-68
2022/08/14 12:17:05;;;;;;;3.45;2.92;;;30.00;1.00;;;;;;7359186;19;20030;-68
2022/08/14 12:19:49;;;;;;;2.95;2.75;;;30.00;1.00;;;;;;7360905;19;20056;-67
2022/08/14 12:22:35;;;;;;;6.95;2.90;;;30.20;1.00;;;;;;7360910;19;20017;-67
2022/08/14 12:25:09;;;;;;;4.15;2.70;;;30.10;1.00;;;;;;7360818;19;20014;-68
2022/08/14 12:27:48;;;;;;;2.80;2.60;;;30.30;1.00;;;;;;7360082;19;20521;-68
2022/08/14 12:30:34;;;;;;;4.03;2.90;;;30.40;1.00;;;;;;7361078;19;20067;-68
2022/08/14 12:33:24;;;;;;;3.15;2.85;;;30.40;1.00;;;;;;7362310;19;20010;-68
2022/08/14 12:36:01;;;;;;;3.70;2.85;;;30.80;1.00;;;;;;7362680;19;20014;-69
2022/08/14 12:38:36;;;;;;;2.95;2.70;;;30.90;1.00;;;;;;7367234;19;20389;-68
2022/08/14 12:41:12;;;;;;;;;;;31.10;1.00;;;;;;7391278;19;20018;-68
2022/08/14 12:43:55;;;;;;;5.05;2.63;;;30.50;1.00;;;;;;7367987;19;20293;-68
2022/08/14 12:46:30;;;;;;;2.90;2.70;;;30.40;1.00;;;;;;7366084;19;20021;-68
2022/08/14 12:49:05;;;;;;;4.20;3.13;;;30.60;1.00;;;;;;7368130;19;20510;-68
2022/08/14 12:51:35;;;;;;;3.95;2.85;;;30.80;1.00;;;;;;7368460;19;20018;-68
2022/08/14 12:54:16;;;;;;;3.30;2.70;;;30.70;1.00;;;;;;7368534;19;20006;-68
2022/08/14 12:57:06;;;;;;;3.42;3.17;;;30.90;1.00;;;;;;7365708;19;20017;-67
2022/08/14 12:59:39;;;;;;;2.92;2.72;;;30.90;1.00;;;;;;7369126;19;20015;-69
2022/08/14 13:02:24;;;;;;;3.05;2.72;;;31.00;1.00;;;;;;7393784;19;20019;-67
2022/08/14 13:04:56;;;;;;;;;;;30.60;1.00;;;;;;7367799;19;20018;-68
2022/08/14 13:07:29;;;;;;;3.58;2.70;;;30.90;1.00;;;;;;7367147;19;19911;-68
2022/08/14 13:10:02;;;;;;;2.75;2.55;;;30.90;1.00;;;;;;7367933;19;20018;-67
2022/08/14 13:12:56;;;;;;;4.38;2.60;;;31.20;1.00;;;;;;7367550;19;20014;-67
2022/08/14 13:15:51;;;;;;;3.50;2.42;;;31.40;1.00;;;;;;7366589;19;20021;-68
2022/08/14 13:18:28;;;;;;;2.80;2.60;;;31.40;1.00;;;;;;7366956;19;20097;-68
2022/08/14 13:21:00;;;;;;;2.38;2.17;;;31.50;1.00;;;;;;7367540;19;20069;-68
2022/08/14 13:23:35;;;;;;;3.75;2.88;;;31.30;1.00;;;;;;7367131;19;20018;-68
2022/08/14 13:26:08;;;;;;;2.88;2.53;;;31.10;1.00;;;;;;7386914;19;20026;-68
2022/08/14 13:28:42;;;;;;;2.40;2.20;;;31.20;1.00;;;;;;7363840;19;20014;-71
2022/08/14 13:31:38;;;;;;;3.50;2.30;;;31.10;1.00;;;;;;7366338;19;20540;-68
2022/08/14 13:34:09;;;;;;;2.40;2.20;;;30.90;1.00;;;;;;7368998;19;20014;-68
2022/08/14 13:36:41;;;;;;;4.43;2.72;;;31.00;1.00;;;;;;7367302;19;20013;-68
2022/08/14 13:39:28;;;;;;;2.60;2.15;;;31.20;1.00;;;;;;7366797;19;20007;-67
2022/08/14 13:42:06;;;;;;;5.65;2.90;;;31.40;1.00;;;;;;7367162;19;20006;-67
2022/08/14 13:44:38;;;;;;;2.85;2.00;;;31.40;1.00;;;;;;7366649;19;20020;-68
2022/08/14 13:47:14;;;;;;;4.03;2.30;;;31.50;1.00;;;;;;7387802;19;20359;-68
2022/08/14 13:49:44;;;;;;;3.38;1.65;;;31.00;1.00;;;;;;7365773;19;20022;-68
2022/08/14 13:52:28;;;;;;;2.10;1.90;;;31.20;1.00;;;;;;7364186;19;20011;-68
2022/08/14 13:55:21;;;;;;;3.33;2.38;;;31.20;1.00;;;;;;7364681;19;20003;-68
2022/08/14 13:57:52;;;;;;;2.08;1.88;;;31.00;1.00;;;;;;7365740;19;20021;-68
2022/08/14 14:00:35;;;;;;;3.28;1.98;;;31.20;1.00;;;;;;7365721;19;20018;-67
2022/08/14 14:03:27;;;;;;;3.40;2.13;;;31.00;1.00;;;;;;7367407;19;20014;-68
2022/08/14 14:06:01;;;;;;;4.53;2.40;;;31.00;1.00;;;;;;7367455;19;20018;-67
2022/08/14 14:08:37;;;;;;;4.25;2.25;;;31.30;1.00;;;;;;7367431;19;20323;-68
2022/08/14 14:11:18;;;;;;;2.28;2.03;;;31.40;1.00;;;;;;7389577;19;20006;-67